Karratha Aerodrome, Australia
Current Conditions -  °F | °C
As of 2:00 PM on Saturday 25 Oct 2014 (Local Time) from YPPD Reporting Station
Clear Clear  
Wind Chill: 95°   Ceiling: Unl
Heat Index: 95°   Visibility: 6mi
Dew Point: 61°   Wind: 17mph
Humidity: 32%   Direction: 310°NW
Pressure: 29.83"   Gusts: NA
Location:  20.72°S, 116.77°E
Report Text: YPPD 250600Z AUTO 31015KT 9999 // NCD 35/16 Q1010
Loading
Personal Weather Stations






























Interactive Weather Map
Tropical Storm Tracking
New forecast layout! Learn more

10-Day Weather Forecast

Advertisements
Track Severe Weather on mobile